createdAt,value
2023-03-19T00:00:29.049Z,82.44
2023-03-19T00:02:56.308Z,82.08
2023-03-19T00:05:23.188Z,82.27
2023-03-19T00:07:49.894Z,82.32
2023-03-19T00:10:16.634Z,82.43
2023-03-19T00:12:43.284Z,82.44
2023-03-19T00:15:14.317Z,82.86
2023-03-19T00:17:43.082Z,82.27
2023-03-19T00:20:12.512Z,82.71
2023-03-19T00:22:40.221Z,82.96
2023-03-19T00:25:08.507Z,82.68
2023-03-19T00:27:36.647Z,82.72
2023-03-19T00:30:05.254Z,83.31
2023-03-19T00:32:33.596Z,82.60
2023-03-19T00:35:00.431Z,83.00
2023-03-19T00:37:27.566Z,82.82
2023-03-19T00:39:55.640Z,83.15
2023-03-19T00:42:22.407Z,82.98
2023-03-19T00:44:49.072Z,82.75
2023-03-19T00:47:15.829Z,82.86
2023-03-19T00:49:42.471Z,83.66
2023-03-19T00:52:09.245Z,83.58
2023-03-19T00:54:36.216Z,83.18
2023-03-19T00:57:02.919Z,82.93
2023-03-19T00:59:30.248Z,83.28
2023-03-19T01:01:57.046Z,84.05
2023-03-19T01:04:23.855Z,84.04
2023-03-19T01:06:51.092Z,84.01
2023-03-19T01:09:17.937Z,84.23
2023-03-19T01:11:44.756Z,84.42
2023-03-19T01:14:11.756Z,84.11
2023-03-19T01:16:38.705Z,84.42
2023-03-19T01:19:06.169Z,84.16
2023-03-19T01:21:34.104Z,83.81
2023-03-19T01:24:01.026Z,83.81
2023-03-19T01:26:28.995Z,83.80
2023-03-19T01:29:03.694Z,84.39
2023-03-19T01:31:30.505Z,84.37
2023-03-19T01:34:21.096Z,84.94
2023-03-19T01:36:52.700Z,85.30
2023-03-19T01:39:27.717Z,85.81
2023-03-19T01:41:55.221Z,85.73
2023-03-19T01:44:49.326Z,85.89
2023-03-19T01:47:43.309Z,86.30
2023-03-19T01:50:24.320Z,86.04
2023-03-19T01:53:01.224Z,86.28
2023-03-19T01:55:46.864Z,86.30
2023-03-19T01:58:28.298Z,86.29
2023-03-19T02:01:14.521Z,87.06
2023-03-19T02:03:46.737Z,87.14
2023-03-19T02:06:21.019Z,88.26
2023-03-19T02:08:49.559Z,88.46
2023-03-19T02:11:17.047Z,88.36
2023-03-19T02:13:43.808Z,90.05
2023-03-19T02:16:11.014Z,91.36
2023-03-19T02:18:39.024Z,91.29
2023-03-19T02:21:08.452Z,91.78
2023-03-19T02:24:07.939Z,92.42
2023-03-19T02:26:47.845Z,91.66
2023-03-19T02:29:14.705Z,91.06
2023-03-19T02:31:41.666Z,91.47
2023-03-19T02:34:21.394Z,91.63
2023-03-19T02:36:52.268Z,91.35
2023-03-19T02:39:26.305Z,91.14
2023-03-19T02:41:54.679Z,91.53
2023-03-19T02:44:22.410Z,91.84
2023-03-19T02:46:51.790Z,91.64
2023-03-19T02:49:19.026Z,91.14
2023-03-19T02:51:45.794Z,91.29
2023-03-19T02:54:12.569Z,91.85
2023-03-19T02:56:39.277Z,91.22
2023-03-19T02:59:06.684Z,91.04
2023-03-19T03:01:33.641Z,90.85
2023-03-19T03:04:00.322Z,90.82
2023-03-19T03:06:27.022Z,90.75
2023-03-19T03:08:53.713Z,90.94
2023-03-19T03:11:20.431Z,91.89
2023-03-19T03:13:47.162Z,91.61
2023-03-19T03:16:13.868Z,92.02
2023-03-19T03:18:42.476Z,91.86
2023-03-19T03:21:10.254Z,91.38
2023-03-19T03:23:36.937Z,90.42
2023-03-19T03:26:03.677Z,89.82
2023-03-19T03:28:30.355Z,89.36
2023-03-19T03:31:01.187Z,89.59
2023-03-19T03:33:28.862Z,89.51
2023-03-19T03:35:56.022Z,90.18
2023-03-19T03:38:23.634Z,91.81
2023-03-19T03:40:52.703Z,93.11
2023-03-19T03:43:21.600Z,93.96
2023-03-19T03:45:49.227Z,94.67
2023-03-19T03:48:17.792Z,95.09
2023-03-19T03:50:44.548Z,94.63
2023-03-19T03:53:16.101Z,94.46
2023-03-19T03:55:44.205Z,94.19
2023-03-19T03:58:13.187Z,94.35
2023-03-19T04:00:40.563Z,94.58
2023-03-19T04:03:07.317Z,94.55
2023-03-19T04:05:34.101Z,94.74
2023-03-19T04:08:01.349Z,94.77
2023-03-19T04:10:28.166Z,95.17
2023-03-19T04:12:54.894Z,95.04
2023-03-19T04:15:22.795Z,95.28
2023-03-19T04:17:51.845Z,95.48
2023-03-19T04:20:19.045Z,95.70
2023-03-19T04:22:46.725Z,96.33
2023-03-19T04:25:13.647Z,96.47
2023-03-19T04:27:40.794Z,96.54
2023-03-19T04:30:09.990Z,97.94
2023-03-19T04:32:37.280Z,98.81
2023-03-19T04:35:04.916Z,98.65
2023-03-19T04:37:31.658Z,100.00
2023-03-19T04:39:59.604Z,100.00
2023-03-19T04:42:26.569Z,100.00
2023-03-19T04:45:04.700Z,100.00
2023-03-19T04:47:31.938Z,100.00
2023-03-19T04:50:00.966Z,100.00
2023-03-19T04:52:29.318Z,100.00
2023-03-19T04:54:56.148Z,100.00
2023-03-19T04:57:23.286Z,100.00
2023-03-19T04:59:52.426Z,100.00
2023-03-19T05:02:22.047Z,100.00
2023-03-19T05:04:49.935Z,100.00
2023-03-19T05:07:16.978Z,100.00
2023-03-19T05:09:46.271Z,100.00
2023-03-19T05:12:14.250Z,100.00
2023-03-19T05:14:46.010Z,100.00
2023-03-19T05:17:19.423Z,100.00
2023-03-19T05:19:59.003Z,100.00
2023-03-19T05:22:26.355Z,100.00
2023-03-19T05:24:56.232Z,100.00
2023-03-19T05:27:23.505Z,100.00
2023-03-19T05:30:06.677Z,100.00
2023-03-19T05:32:53.173Z,100.00
2023-03-19T05:35:30.676Z,100.00
2023-03-19T05:37:58.405Z,100.00
2023-03-19T05:40:25.231Z,100.00
2023-03-19T05:42:52.936Z,100.00
2023-03-19T05:45:22.993Z,100.00
2023-03-19T05:47:53.794Z,100.00
2023-03-19T05:50:21.984Z,100.00
2023-03-19T05:53:11.841Z,100.00
2023-03-19T05:55:43.165Z,100.00
2023-03-19T05:58:11.266Z,100.00
2023-03-19T06:00:38.469Z,100.00
2023-03-19T06:03:05.633Z,100.00
2023-03-19T06:05:41.951Z,100.00
2023-03-19T06:08:30.782Z,100.00
2023-03-19T06:11:20.439Z,100.00
2023-03-19T06:13:54.258Z,100.00
2023-03-19T06:16:21.397Z,100.00
2023-03-19T06:18:52.523Z,100.00
2023-03-19T06:21:19.682Z,100.00
2023-03-19T06:23:46.430Z,100.00
2023-03-19T06:26:17.434Z,100.00
2023-03-19T06:28:52.564Z,100.00
2023-03-19T06:31:20.007Z,100.00
2023-03-19T06:33:52.970Z,100.00
2023-03-19T06:36:21.129Z,100.00
2023-03-19T06:38:48.498Z,100.00
2023-03-19T06:41:15.164Z,100.00
2023-03-19T06:43:42.333Z,100.00
2023-03-19T06:46:11.470Z,100.00
2023-03-19T06:48:38.659Z,100.00
2023-03-19T06:51:05.994Z,100.00
2023-03-19T06:53:32.920Z,100.00
2023-03-19T06:55:59.551Z,100.00
2023-03-19T06:58:27.014Z,100.00
2023-03-19T07:00:53.697Z,100.00
2023-03-19T07:03:20.657Z,100.00
2023-03-19T07:05:50.299Z,100.00
2023-03-19T07:08:16.996Z,100.00
2023-03-19T07:10:43.785Z,100.00
2023-03-19T07:13:10.580Z,100.00
2023-03-19T07:15:37.270Z,100.00
2023-03-19T07:18:04.086Z,100.00
2023-03-19T07:20:30.985Z,100.00
2023-03-19T07:22:57.712Z,100.00
2023-03-19T07:25:24.388Z,100.00
2023-03-19T07:27:51.257Z,100.00
2023-03-19T07:30:18.052Z,100.00
2023-03-19T07:32:44.683Z,100.00
2023-03-19T07:35:11.667Z,100.00
2023-03-19T07:37:38.298Z,100.00
2023-03-19T07:40:05.585Z,100.00
2023-03-19T07:42:32.202Z,100.00
2023-03-19T07:44:58.974Z,100.00
2023-03-19T07:47:29.469Z,100.00
2023-03-19T07:49:57.316Z,100.00
2023-03-19T07:52:25.215Z,100.00
2023-03-19T07:54:52.413Z,100.00
2023-03-19T07:57:19.540Z,100.00
2023-03-19T07:59:46.537Z,100.00
2023-03-19T08:02:13.592Z,100.00
2023-03-19T08:04:41.360Z,100.00
2023-03-19T08:07:11.045Z,100.00
2023-03-19T08:09:37.712Z,100.00
2023-03-19T08:12:05.462Z,100.00
2023-03-19T08:14:33.090Z,100.00
2023-03-19T08:17:00.401Z,100.00
2023-03-19T08:19:27.119Z,100.00
2023-03-19T08:21:53.802Z,100.00
2023-03-19T08:24:20.788Z,100.00
2023-03-19T08:26:47.445Z,100.00
2023-03-19T08:29:14.111Z,100.00
2023-03-19T08:31:40.809Z,100.00
2023-03-19T08:34:10.317Z,100.00
2023-03-19T08:36:37.005Z,100.00
2023-03-19T08:39:04.523Z,100.00
2023-03-19T08:41:31.593Z,100.00
2023-03-19T08:43:58.267Z,100.00
2023-03-19T08:46:26.950Z,100.00
2023-03-19T08:48:53.782Z,100.00
2023-03-19T08:51:20.938Z,100.00
2023-03-19T08:53:47.570Z,100.00
2023-03-19T08:56:14.214Z,100.00
2023-03-19T08:58:42.177Z,100.00
2023-03-19T09:01:11.941Z,100.00
2023-03-19T09:03:39.480Z,100.00
2023-03-19T09:06:08.821Z,100.00
2023-03-19T09:08:37.259Z,100.00
2023-03-19T09:11:04.741Z,100.00
2023-03-19T09:13:31.726Z,100.00
2023-03-19T09:15:58.444Z,100.00
2023-03-19T09:18:25.619Z,100.00
2023-03-19T09:20:54.074Z,100.00
2023-03-19T09:23:21.378Z,100.00
2023-03-19T09:25:48.819Z,100.00
2023-03-19T09:28:16.037Z,100.00
2023-03-19T09:30:43.417Z,100.00
2023-03-19T09:33:10.162Z,100.00
2023-03-19T09:35:39.722Z,100.00
2023-03-19T09:38:06.967Z,100.00
2023-03-19T09:40:46.767Z,100.00
2023-03-19T09:43:33.044Z,100.00
2023-03-19T09:46:03.205Z,100.00
2023-03-19T09:48:40.883Z,100.00
2023-03-19T09:51:16.046Z,100.00
2023-03-19T09:54:00.658Z,100.00
2023-03-19T09:56:28.040Z,100.00
2023-03-19T09:58:54.957Z,100.00
2023-03-19T10:01:26.649Z,100.00
2023-03-19T10:04:13.012Z,100.00
2023-03-19T10:06:43.891Z,100.00
2023-03-19T10:09:41.172Z,100.00
2023-03-19T10:12:26.627Z,98.66
2023-03-19T10:15:17.392Z,95.27
2023-03-19T10:18:02.730Z,94.90
2023-03-19T10:20:43.274Z,92.90
2023-03-19T10:23:15.751Z,93.70
2023-03-19T10:25:44.930Z,89.32
2023-03-19T10:28:17.054Z,89.48
2023-03-19T10:30:45.848Z,89.90
2023-03-19T10:33:31.961Z,89.77
2023-03-19T10:36:05.403Z,83.75
2023-03-19T10:38:33.611Z,78.22
2023-03-19T10:41:05.025Z,74.00
2023-03-19T10:43:32.151Z,72.11
2023-03-19T10:45:58.834Z,67.86
2023-03-19T10:48:28.362Z,69.74
2023-03-19T10:51:01.238Z,66.47
2023-03-19T10:53:33.162Z,67.35
2023-03-19T10:56:04.973Z,66.05
2023-03-19T10:58:34.894Z,62.00
2023-03-19T11:01:09.656Z,61.62
2023-03-19T11:03:39.073Z,61.31
2023-03-19T11:06:17.471Z,63.86
2023-03-19T11:08:52.460Z,64.67
2023-03-19T11:11:43.963Z,63.52
2023-03-19T11:14:17.190Z,59.61
2023-03-19T11:16:58.591Z,59.54
2023-03-19T11:19:28.301Z,58.84
2023-03-19T11:22:18.959Z,61.16
2023-03-19T11:25:01.048Z,62.48
2023-03-19T11:27:36.157Z,64.44
2023-03-19T11:30:12.580Z,66.36
2023-03-19T11:33:15.857Z,68.08
2023-03-19T11:35:55.696Z,65.43
2023-03-19T11:38:33.692Z,64.21
2023-03-19T11:41:37.966Z,62.74
2023-03-19T11:44:24.721Z,61.92
2023-03-19T11:46:59.881Z,63.11
2023-03-19T11:49:41.966Z,62.26
2023-03-19T11:52:17.004Z,61.37
2023-03-19T11:54:49.682Z,61.32
2023-03-19T11:58:02.830Z,59.30
2023-03-19T12:00:35.499Z,61.64
2023-03-19T12:03:08.293Z,62.36
2023-03-19T12:05:38.068Z,62.73
2023-03-19T12:08:07.819Z,63.78
2023-03-19T12:10:43.851Z,60.67
2023-03-19T12:13:27.392Z,61.31
2023-03-19T12:16:03.244Z,60.59
2023-03-19T12:18:55.612Z,59.12
2023-03-19T12:21:34.352Z,60.08
2023-03-19T12:24:19.688Z,62.69
2023-03-19T12:26:52.780Z,62.80
2023-03-19T12:29:46.191Z,62.50
2023-03-19T12:32:25.536Z,59.06
2023-03-19T12:35:01.177Z,60.94
2023-03-19T12:37:53.619Z,60.01
2023-03-19T12:40:20.206Z,60.81
2023-03-19T12:42:46.867Z,59.94
2023-03-19T12:45:39.761Z,59.63
2023-03-19T12:48:12.355Z,60.69
2023-03-19T12:50:43.411Z,60.78
2023-03-19T12:53:26.575Z,61.93
2023-03-19T12:55:58.482Z,62.56
2023-03-19T12:58:50.892Z,60.91
2023-03-19T13:01:22.298Z,61.81
2023-03-19T13:04:03.398Z,61.83
2023-03-19T13:06:37.050Z,62.15
2023-03-19T13:09:50.678Z,63.40
2023-03-19T13:12:27.735Z,63.20
2023-03-19T13:15:16.910Z,63.00
2023-03-19T13:17:58.429Z,62.33
2023-03-19T13:20:49.587Z,61.83
2023-03-19T13:23:25.416Z,62.01
2023-03-19T13:25:54.944Z,61.57
2023-03-19T13:28:33.799Z,62.03
2023-03-19T13:31:06.740Z,60.76
2023-03-19T13:33:35.255Z,58.21
2023-03-19T13:36:05.436Z,57.13
2023-03-19T13:38:37.480Z,55.22
2023-03-19T13:41:04.038Z,52.16
2023-03-19T13:43:30.602Z,50.86
2023-03-19T13:46:12.592Z,49.96
2023-03-19T13:48:49.754Z,51.58
2023-03-19T13:51:19.259Z,51.36
2023-03-19T13:54:13.545Z,53.44
2023-03-19T13:57:00.965Z,53.25
2023-03-19T13:59:30.098Z,53.90
2023-03-19T14:01:57.830Z,55.28
2023-03-19T14:04:33.238Z,56.17
2023-03-19T14:07:15.163Z,57.63
2023-03-19T14:09:43.826Z,59.66
2023-03-19T14:12:20.333Z,61.45
2023-03-19T14:14:55.996Z,61.38
2023-03-19T14:17:27.517Z,64.11
2023-03-19T14:19:54.922Z,67.84
2023-03-19T14:22:32.626Z,71.60
2023-03-19T14:25:18.061Z,71.76
2023-03-19T14:27:50.341Z,73.04
2023-03-19T14:30:39.025Z,72.55
2023-03-19T14:33:13.849Z,74.68
2023-03-19T14:35:45.267Z,77.39
2023-03-19T14:38:23.196Z,79.74
2023-03-19T14:40:53.053Z,83.71
2023-03-19T14:43:56.557Z,85.73
2023-03-19T14:46:42.416Z,88.11
2023-03-19T14:49:27.987Z,84.88
2023-03-19T14:52:03.489Z,86.22
2023-03-19T14:54:42.791Z,88.99
2023-03-19T14:57:27.070Z,92.59
2023-03-19T14:59:55.129Z,89.17
2023-03-19T15:02:35.078Z,90.07
2023-03-19T15:05:08.860Z,93.26
2023-03-19T15:07:43.451Z,91.15
2023-03-19T15:10:22.413Z,90.06
2023-03-19T15:13:24.724Z,84.42
2023-03-19T15:16:02.281Z,84.92
2023-03-19T15:18:29.464Z,84.87
2023-03-19T15:20:57.142Z,83.10
2023-03-19T15:23:28.878Z,82.33
2023-03-19T15:25:58.417Z,82.24
2023-03-19T15:28:28.059Z,82.65
2023-03-19T15:31:26.815Z,82.69
2023-03-19T15:33:52.953Z,83.04
2023-03-19T15:36:31.684Z,83.04
2023-03-19T15:39:10.983Z,83.30
2023-03-19T15:41:44.114Z,82.82
2023-03-19T15:44:16.814Z,83.73
2023-03-19T15:46:45.572Z,85.06
2023-03-19T15:49:20.323Z,84.32
2023-03-19T15:51:51.631Z,85.36
2023-03-19T15:54:19.141Z,85.88
2023-03-19T15:56:47.752Z,87.18
2023-03-19T15:59:14.552Z,88.13
2023-03-19T16:01:41.573Z,89.99
2023-03-19T16:04:16.312Z,90.17
2023-03-19T16:06:43.025Z,90.93
2023-03-19T16:09:21.867Z,92.11
2023-03-19T16:11:49.158Z,94.01
2023-03-19T16:14:23.126Z,94.29
2023-03-19T16:16:50.934Z,95.49
2023-03-19T16:19:34.921Z,96.83
2023-03-19T16:22:04.163Z,96.58
2023-03-19T16:24:34.345Z,97.99
2023-03-19T16:27:05.809Z,98.81
2023-03-19T16:29:39.858Z,100.00
2023-03-19T16:32:14.386Z,100.00
2023-03-19T16:34:46.692Z,100.00
2023-03-19T16:37:44.247Z,100.00
2023-03-19T16:40:13.765Z,100.00
2023-03-19T16:42:49.630Z,100.00
2023-03-19T16:45:16.305Z,100.00
2023-03-19T16:47:44.308Z,100.00
2023-03-19T16:50:11.366Z,100.00
2023-03-19T16:52:39.515Z,100.00
2023-03-19T16:55:18.815Z,100.00
2023-03-19T16:57:47.517Z,100.00
2023-03-19T17:00:14.931Z,100.00
2023-03-19T17:02:41.620Z,100.00
2023-03-19T17:05:15.450Z,100.00
2023-03-19T17:07:42.693Z,100.00
2023-03-19T17:10:20.942Z,100.00
2023-03-19T17:12:50.368Z,100.00
2023-03-19T17:15:31.950Z,100.00
2023-03-19T17:18:00.628Z,100.00
2023-03-19T17:20:34.210Z,100.00
2023-03-19T17:23:01.033Z,100.00
2023-03-19T17:25:27.752Z,100.00
2023-03-19T17:27:54.374Z,100.00
2023-03-19T17:30:21.097Z,100.00
2023-03-19T17:32:49.850Z,100.00
2023-03-19T17:35:19.441Z,100.00
2023-03-19T17:37:47.474Z,100.00
2023-03-19T17:40:19.052Z,100.00
2023-03-19T17:42:46.057Z,100.00
2023-03-19T17:45:14.638Z,100.00
2023-03-19T17:47:44.125Z,100.00
2023-03-19T17:50:31.574Z,100.00
2023-03-19T17:52:58.935Z,100.00
2023-03-19T17:55:28.725Z,100.00
2023-03-19T17:57:56.057Z,100.00
2023-03-19T18:00:24.809Z,100.00
2023-03-19T18:02:54.107Z,100.00
2023-03-19T18:05:25.745Z,100.00
2023-03-19T18:07:56.648Z,100.00
2023-03-19T18:10:29.933Z,100.00
2023-03-19T18:13:00.012Z,100.00
2023-03-19T18:15:29.764Z,100.00
2023-03-19T18:17:58.828Z,100.00
2023-03-19T18:20:29.819Z,100.00
2023-03-19T18:22:56.532Z,100.00
2023-03-19T18:25:26.237Z,100.00
2023-03-19T18:27:53.710Z,100.00
2023-03-19T18:30:23.097Z,100.00
2023-03-19T18:32:54.896Z,100.00
2023-03-19T18:35:28.316Z,100.00
2023-03-19T18:37:56.214Z,100.00
2023-03-19T18:40:25.627Z,100.00
2023-03-19T18:42:52.950Z,100.00
2023-03-19T18:45:20.321Z,100.00
2023-03-19T18:47:48.900Z,100.00
2023-03-19T18:50:25.661Z,100.00
2023-03-19T18:52:53.685Z,100.00
2023-03-19T18:55:23.288Z,100.00
2023-03-19T18:57:54.300Z,100.00
2023-03-19T19:00:25.018Z,100.00
2023-03-19T19:02:53.184Z,100.00
2023-03-19T19:05:23.747Z,100.00
2023-03-19T19:07:51.294Z,100.00
2023-03-19T19:10:18.333Z,100.00
2023-03-19T19:12:47.702Z,100.00
2023-03-19T19:15:17.379Z,100.00
2023-03-19T19:17:44.592Z,100.00
2023-03-19T19:20:23.227Z,100.00
2023-03-19T19:22:51.636Z,100.00
2023-03-19T19:25:20.815Z,100.00
2023-03-19T19:27:56.990Z,100.00
2023-03-19T19:30:24.158Z,100.00
2023-03-19T19:32:50.961Z,100.00
2023-03-19T19:35:22.975Z,100.00
2023-03-19T19:37:50.443Z,100.00
2023-03-19T19:40:20.980Z,100.00
2023-03-19T19:42:54.256Z,100.00
2023-03-19T19:45:41.910Z,100.00
2023-03-19T19:48:17.687Z,100.00
2023-03-19T19:50:46.437Z,100.00
2023-03-19T19:53:13.928Z,100.00
2023-03-19T19:55:41.546Z,100.00
2023-03-19T19:58:17.753Z,100.00
2023-03-19T20:00:53.303Z,100.00
2023-03-19T20:03:29.259Z,100.00
2023-03-19T20:05:57.274Z,100.00
2023-03-19T20:08:27.023Z,100.00
2023-03-19T20:10:54.275Z,100.00
2023-03-19T20:13:27.700Z,100.00
2023-03-19T20:15:57.160Z,100.00
2023-03-19T20:18:25.155Z,100.00
2023-03-19T20:20:52.960Z,100.00
2023-03-19T20:23:20.821Z,100.00
2023-03-19T20:25:47.864Z,100.00
2023-03-19T20:28:27.776Z,100.00
2023-03-19T20:30:55.200Z,100.00
2023-03-19T20:33:22.598Z,100.00
2023-03-19T20:35:49.612Z,100.00
2023-03-19T20:38:16.718Z,100.00
2023-03-19T20:40:53.330Z,100.00
2023-03-19T20:43:29.651Z,100.00
2023-03-19T20:46:02.930Z,100.00
2023-03-19T20:48:31.080Z,100.00
2023-03-19T20:50:59.647Z,100.00
2023-03-19T20:53:26.340Z,100.00
2023-03-19T20:55:53.847Z,100.00
2023-03-19T20:58:33.602Z,100.00
2023-03-19T21:01:01.008Z,100.00
2023-03-19T21:03:30.729Z,100.00
2023-03-19T21:06:10.474Z,100.00
2023-03-19T21:08:42.404Z,100.00
2023-03-19T21:11:15.111Z,100.00
2023-03-19T21:13:42.527Z,100.00
2023-03-19T21:16:17.515Z,100.00
2023-03-19T21:18:44.894Z,100.00
2023-03-19T21:21:13.644Z,100.00
2023-03-19T21:23:42.955Z,100.00
2023-03-19T21:26:18.014Z,100.00
2023-03-19T21:28:46.644Z,100.00
2023-03-19T21:31:20.432Z,100.00
2023-03-19T21:33:48.794Z,100.00
2023-03-19T21:36:16.799Z,100.00
2023-03-19T21:38:44.169Z,100.00
2023-03-19T21:41:26.431Z,100.00
2023-03-19T21:43:57.846Z,100.00
2023-03-19T21:46:27.573Z,100.00
2023-03-19T21:48:56.089Z,100.00
2023-03-19T21:51:25.057Z,100.00
2023-03-19T21:53:52.433Z,100.00
2023-03-19T21:56:33.334Z,100.00
2023-03-19T21:59:03.259Z,100.00
2023-03-19T22:01:30.104Z,100.00
2023-03-19T22:03:58.009Z,100.00
2023-03-19T22:06:25.249Z,100.00
2023-03-19T22:08:54.117Z,100.00
2023-03-19T22:11:28.399Z,100.00
2023-03-19T22:14:07.928Z,100.00
2023-03-19T22:16:34.828Z,100.00
2023-03-19T22:19:01.961Z,100.00
2023-03-19T22:21:30.629Z,100.00
2023-03-19T22:23:57.319Z,100.00
2023-03-19T22:26:36.432Z,100.00
2023-03-19T22:29:06.582Z,100.00
2023-03-19T22:31:34.767Z,100.00
2023-03-19T22:34:02.238Z,100.00
2023-03-19T22:36:28.913Z,100.00
2023-03-19T22:38:55.699Z,100.00
2023-03-19T22:41:27.726Z,100.00
2023-03-19T22:43:55.237Z,100.00
2023-03-19T22:46:22.346Z,100.00
2023-03-19T22:48:52.518Z,100.00
2023-03-19T22:51:25.591Z,100.00
2023-03-19T22:53:52.339Z,100.00
2023-03-19T22:56:22.073Z,100.00
2023-03-19T22:58:48.916Z,100.00
2023-03-19T23:01:22.471Z,100.00
2023-03-19T23:03:50.586Z,100.00
2023-03-19T23:06:30.335Z,100.00
2023-03-19T23:08:58.042Z,100.00
2023-03-19T23:11:24.813Z,100.00
2023-03-19T23:13:51.913Z,100.00
2023-03-19T23:16:24.179Z,100.00
2023-03-19T23:18:51.499Z,100.00
2023-03-19T23:21:19.017Z,100.00
2023-03-19T23:23:45.956Z,100.00
2023-03-19T23:26:29.990Z,100.00
2023-03-19T23:29:06.691Z,100.00
2023-03-19T23:31:34.419Z,100.00
2023-03-19T23:34:01.614Z,100.00
2023-03-19T23:36:28.356Z,100.00
2023-03-19T23:38:54.989Z,100.00
2023-03-19T23:41:26.633Z,100.00
2023-03-19T23:43:54.860Z,100.00
2023-03-19T23:46:22.105Z,100.00
2023-03-19T23:48:48.860Z,100.00
2023-03-19T23:51:16.450Z,100.00
2023-03-19T23:53:43.680Z,100.00
2023-03-19T23:56:18.756Z,100.00
2023-03-19T23:58:47.661Z,100.00
